Time;durP1;ratioP1;P1;durP2;ratioP2;P2;SDS_P1;SDS_P2;PMS_P1;PMS_P2;Temp;Humidity;BMP_temperature;BMP_pressure;BME280_temperature;BME280_humidity;BME280_pressure;Samples;Min_cycle;Max_cycle;Signal;HPM_P1;HPM_P2
2023/06/27 00:02:20;;;;;;;4.93;2.88;;;;;;;17.81;73.87;101946.63;10236374;29;20031;-70
2023/06/27 00:07:27;;;;;;;10.00;2.53;;;;;;;17.78;73.66;101961.59;10253900;28;20036;-70
2023/06/27 00:12:30;;;;;;;6.13;3.05;;;;;;;17.72;73.42;101956.13;10253125;28;20046;-70
2023/06/27 00:17:34;;;;;;;8.98;3.35;;;;;;;17.65;73.63;101958.91;10253385;28;20487;-70
2023/06/27 00:22:39;;;;;;;8.52;3.30;;;;;;;17.57;74.55;101972.81;10252753;29;20113;-70
2023/06/27 00:27:39;;;;;;;5.07;3.30;;;;;;;17.48;75.37;101960.44;10252047;29;20027;-70
2023/06/27 00:32:40;;;;;;;8.90;3.55;;;;;;;17.41;75.44;101969.53;10253006;29;20395;-71
2023/06/27 00:37:40;;;;;;;7.80;3.28;;;;;;;17.38;75.05;101966.38;10252659;29;20031;-70
2023/06/27 00:42:41;;;;;;;5.60;3.63;;;;;;;17.41;76.21;101963.22;10253091;29;20420;-70
2023/06/27 00:47:41;;;;;;;22.10;2.83;;;;;;;17.46;76.26;101966.16;10251348;29;20027;-70
2023/06/27 00:52:41;;;;;;;10.98;2.92;;;;;;;17.55;76.50;101963.97;10251484;29;20110;-70
2023/06/27 00:57:42;;;;;;;7.35;2.70;;;;;;;17.63;77.15;101967.31;10251626;28;20483;-70
2023/06/27 01:02:43;;;;;;;10.85;3.90;;;;;;;17.70;76.28;101959.06;10235988;29;20085;-71
2023/06/27 01:07:52;;;;;;;8.70;3.03;;;;;;;17.79;76.73;101966.00;10250347;29;20113;-70
2023/06/27 01:13:03;;;;;;;6.30;2.90;;;;;;;17.83;77.41;101960.91;10250776;29;20031;-70
2023/06/27 01:18:04;;;;;;;10.25;4.00;;;;;;;17.82;78.11;101953.78;10250802;29;20028;-71
2023/06/27 01:23:08;;;;;;;8.70;4.22;;;;;;;17.80;77.68;101958.63;10249947;29;20039;-71
2023/06/27 01:28:14;;;;;;;10.18;3.72;;;;;;;17.66;76.70;101958.66;10251860;28;20436;-70
2023/06/27 01:33:26;;;;;;;5.47;4.28;;;;;;;17.57;77.29;101962.72;10250435;29;20063;-70
2023/06/27 01:38:32;;;;;;;15.80;4.78;;;;;;;17.48;77.26;101960.44;10234858;29;20027;-71
2023/06/27 01:43:33;;;;;;;11.20;4.50;;;;;;;17.48;77.93;101952.22;10234890;29;20055;-70
2023/06/27 01:48:33;;;;;;;17.75;3.70;;;;;;;17.52;78.68;101953.50;10234439;29;20035;-70
2023/06/27 01:53:34;;;;;;;7.82;4.00;;;;;;;17.57;78.24;101951.75;10249978;29;20126;-70
2023/06/27 01:58:34;;;;;;;5.03;2.92;;;;;;;17.65;78.01;101956.16;10234640;29;20444;-69
2023/06/27 02:03:35;;;;;;;4.88;4.18;;;;;;;17.63;77.55;101966.47;10250589;28;20042;-70
2023/06/27 02:08:35;;;;;;;10.95;4.10;;;;;;;17.54;76.97;101965.88;10254404;28;20114;-70
2023/06/27 02:13:37;;;;;;;7.15;4.38;;;;;;;17.40;78.25;101954.16;10258122;29;20031;-70
2023/06/27 02:18:37;;;;;;;10.65;3.38;;;;;;;17.29;78.77;101949.34;10256988;29;20039;-70
2023/06/27 02:23:38;;;;;;;9.15;4.75;;;;;;;17.17;78.70;101945.63;10256607;29;20042;-70
2023/06/27 02:28:38;;;;;;;11.07;4.03;;;;;;;17.05;79.26;101944.59;10272740;28;20106;-70
2023/06/27 02:33:39;;;;;;;10.48;4.45;;;;;;;16.89;79.45;101932.22;10258207;29;20043;-70
2023/06/27 02:38:39;;;;;;;7.28;3.42;;;;;;;16.83;80.63;101944.88;10224098;29;20161;-71
2023/06/27 02:43:39;;;;;;;13.52;3.92;;;;;;;16.83;81.45;101946.75;10257375;29;20059;-70
2023/06/27 02:48:40;;;;;;;14.57;4.38;;;;;;;16.78;81.95;101941.91;10257859;29;20038;-70
2023/06/27 02:53:40;;;;;;;4.57;2.65;;;;;;;16.65;81.39;101940.00;10256669;28;20090;-70
2023/06/27 02:58:42;;;;;;;11.52;5.05;;;;;;;16.57;83.15;101939.41;10258337;28;20067;-69
2023/06/27 03:03:43;;;;;;;14.30;4.10;;;;;;;16.58;82.75;101946.56;10256635;29;20043;-69
2023/06/27 03:08:44;;;;;;;13.25;3.67;;;;;;;16.58;83.05;101957.50;10258442;28;20062;-70
2023/06/27 03:13:44;;;;;;;10.65;4.85;;;;;;;16.55;83.31;101944.25;10272774;28;20066;-70
2023/06/27 03:18:45;;;;;;;12.70;4.80;;;;;;;16.52;83.98;101951.81;10255818;28;20039;-70
2023/06/27 03:23:45;;;;;;;8.38;4.28;;;;;;;16.51;84.22;101949.28;10255814;29;20351;-70
2023/06/27 03:28:46;;;;;;;18.63;4.68;;;;;;;16.45;84.49;101952.88;10257922;29;20052;-69
2023/06/27 03:33:47;;;;;;;11.60;3.65;;;;;;;16.34;84.65;101951.63;10257313;28;20170;-71
2023/06/27 03:38:48;;;;;;;10.23;4.22;;;;;;;16.29;85.15;101959.59;10272694;28;20047;-69
2023/06/27 03:43:48;;;;;;;21.85;6.63;;;;;;;16.26;85.08;101960.84;10240430;29;20059;-70
2023/06/27 03:48:53;;;;;;;10.57;4.60;;;;;;;16.24;85.48;101959.38;10225031;29;20172;-70
2023/06/27 03:53:53;;;;;;;6.28;4.18;;;;;;;16.25;86.21;101964.66;10271859;28;20080;-70
2023/06/27 03:58:53;;;;;;;24.17;6.45;;;;;;;16.24;87.22;101962.97;10255411;29;20058;-70
2023/06/27 04:03:54;;;;;;;12.52;4.80;;;;;;;16.22;87.44;101962.34;10254445;29;20463;-71
2023/06/27 04:08:55;;;;;;;12.90;5.05;;;;;;;16.21;87.92;101971.59;10254200;29;20035;-70
2023/06/27 04:13:58;;;;;;;12.95;5.65;;;;;;;16.18;88.91;101965.69;10254940;28;20039;-70
2023/06/27 04:18:59;;;;;;;17.17;4.05;;;;;;;16.15;89.10;101979.78;10269217;28;20122;-70
2023/06/27 04:24:00;;;;;;;7.15;4.07;;;;;;;16.13;89.12;101977.25;10255562;29;20126;-70
2023/06/27 04:29:00;;;;;;;16.63;5.57;;;;;;;16.11;89.30;101973.88;10270837;28;20043;-69
2023/06/27 04:34:01;;;;;;;23.88;6.70;;;;;;;16.11;89.68;101973.88;10254820;28;20069;-68
2023/06/27 04:39:04;;;;;;;24.45;6.57;;;;;;;16.16;89.62;101976.81;10220017;29;20126;-68
2023/06/27 04:44:04;;;;;;;5.57;3.45;;;;;;;16.36;89.63;101976.00;10267319;28;20059;-69
2023/06/27 04:49:05;;;;;;;4.53;2.70;;;;;;;16.95;89.19;101981.47;10254955;29;20110;-68
2023/06/27 04:54:05;;;;;;;7.20;3.33;;;;;;;17.76;88.67;101971.88;10252552;28;20039;-68
2023/06/27 04:59:06;;;;;;;19.52;4.90;;;;;;;18.55;88.37;101975.16;10250701;29;20039;-67
2023/06/27 05:04:06;;;;;;;3.70;2.83;;;;;;;19.33;87.15;101977.31;10251769;29;20063;-66
2023/06/27 05:09:07;;;;;;;2.50;2.33;;;;;;;19.97;86.79;101984.13;10251714;29;20042;-65
2023/06/27 05:14:07;;;;;;;3.50;1.90;;;;;;;20.51;85.77;101983.28;10235888;29;20123;-67
2023/06/27 05:19:08;;;;;;;2.92;1.73;;;;;;;21.00;84.61;101976.50;10250465;29;20136;-70
2023/06/27 05:24:08;;;;;;;2.83;2.22;;;;;;;21.54;82.80;101988.16;10250671;29;20452;-70
2023/06/27 05:29:08;;;;;;;4.22;2.00;;;;;;;22.22;80.77;101977.34;10251988;28;20431;-70
2023/06/27 05:34:09;;;;;;;2.60;1.95;;;;;;;22.64;79.41;101972.22;10250910;28;20054;-70
2023/06/27 05:39:10;;;;;;;2.80;2.00;;;;;;;23.00;77.91;101983.00;10233877;29;20134;-70
2023/06/27 05:44:10;;;;;;;5.97;2.03;;;;;;;23.38;75.86;101980.19;10254922;28;20055;-70
2023/06/27 05:49:10;;;;;;;2.42;2.20;;;;;;;24.09;73.45;101979.34;10273978;28;20184;-69
2023/06/27 05:54:11;;;;;;;2.22;1.95;;;;;;;24.58;71.80;101979.25;10256660;29;20086;-70
2023/06/27 05:59:11;;;;;;;5.28;2.13;;;;;;;25.09;69.62;101982.38;10257752;29;20483;-70
2023/06/27 06:04:12;;;;;;;2.40;2.20;;;;;;;25.23;66.56;101983.56;10258262;29;20042;-69
2023/06/27 06:09:13;;;;;;;1.92;1.13;;;;;;;25.41;64.22;101990.59;10257346;29;20035;-69
2023/06/27 06:14:14;;;;;;;1.45;1.35;;;;;;;25.53;62.55;101995.91;10258027;28;20045;-70
2023/06/27 06:19:14;;;;;;;1.55;1.27;;;;;;;25.87;60.12;101987.16;10256687;29;20059;-69
2023/06/27 06:24:15;;;;;;;1.83;1.48;;;;;;;26.52;59.77;101988.38;10258875;29;20455;-69
2023/06/27 06:29:16;;;;;;;2.42;2.03;;;;;;;27.07;56.83;101991.31;10258603;28;20043;-69
2023/06/27 06:34:16;;;;;;;1.38;1.27;;;;;;;27.46;54.50;101997.03;10257711;29;20478;-69
2023/06/27 06:39:17;;;;;;;1.35;1.30;;;;;;;26.36;56.46;102000.56;10258447;29;20043;-71
2023/06/27 06:44:17;;;;;;;1.70;1.42;;;;;;;26.63;56.38;102009.44;10256558;29;20107;-69
2023/06/27 06:49:18;;;;;;;2.08;1.67;;;;;;;26.44;53.08;102022.19;10256877;29;20467;-69
2023/06/27 06:54:18;;;;;;;2.58;1.70;;;;;;;25.94;53.00;102016.31;10255721;28;20114;-69
2023/06/27 06:59:19;;;;;;;4.38;1.65;;;;;;;26.51;50.78;102003.34;10256275;29;20046;-70
2023/06/27 07:04:19;;;;;;;2.33;1.77;;;;;;;25.04;52.15;102012.81;10270789;28;20062;-69
2023/06/27 07:09:20;;;;;;;5.03;1.75;;;;;;;24.83;51.91;102011.84;10256253;28;20106;-69
2023/06/27 07:14:20;;;;;;;7.53;1.65;;;;;;;24.26;51.54;102018.84;10254746;29;20039;-70
2023/06/27 07:19:21;;;;;;;1.38;1.00;;;;;;;23.80;52.57;102021.13;10255953;28;20073;-70
2023/06/27 07:24:22;;;;;;;3.17;1.60;;;;;;;23.52;52.72;102021.31;10238914;29;20039;-70
2023/06/27 07:29:22;;;;;;;1.67;1.30;;;;;;;23.56;53.28;102023.28;10254683;29;20474;-70
2023/06/27 07:34:23;;;;;;;2.58;1.83;;;;;;;23.41;52.47;102014.78;10270283;28;20453;-69
2023/06/27 07:39:23;;;;;;;6.13;2.45;;;;;;;23.31;52.77;102014.66;10255000;29;20472;-71
2023/06/27 07:44:24;;;;;;;4.72;1.30;;;;;;;23.74;52.24;102015.78;10253594;29;20051;-71
2023/06/27 07:49:24;;;;;;;3.13;1.75;;;;;;;23.60;52.01;102012.53;10253544;29;20453;-70
2023/06/27 07:54:27;;;;;;;1.35;0.90;;;;;;;23.65;52.18;102016.22;10252093;29;20063;-71
2023/06/27 07:59:27;;;;;;;1.75;1.65;;;;;;;23.89;52.02;102029.78;10268285;28;20412;-71
2023/06/27 08:04:27;;;;;;;3.17;1.33;;;;;;;24.17;51.30;102028.69;10252491;28;20035;-69
2023/06/27 08:09:28;;;;;;;1.42;1.33;;;;;;;24.13;51.56;102039.47;10253888;28;20055;-70
2023/06/27 08:14:28;;;;;;;5.80;1.90;;;;;;;24.17;51.63;102023.16;10253841;29;20043;-69
2023/06/27 08:19:29;;;;;;;5.78;1.65;;;;;;;24.74;51.02;102019.81;10269480;28;20050;-70
2023/06/27 08:24:29;;;;;;;1.23;1.20;;;;;;;24.66;50.61;102023.06;10252909;28;20123;-70
2023/06/27 08:29:30;;;;;;;1.38;1.27;;;;;;;23.97;50.26;102026.56;10235640;29;20035;-71
2023/06/27 08:34:31;;;;;;;1.25;1.20;;;;;;;23.86;50.43;102025.59;10268207;28;20039;-70
2023/06/27 08:39:32;;;;;;;4.68;1.25;;;;;;;23.63;51.13;102031.38;10253180;28;20031;-70
2023/06/27 08:44:32;;;;;;;5.28;2.20;;;;;;;23.47;50.70;102024.81;10254424;28;20047;-70
2023/06/27 08:49:33;;;;;;;5.70;2.47;;;;;;;23.47;51.04;102032.28;10251441;29;20476;-71
2023/06/27 08:54:45;;;;;;;2.28;1.60;;;;;;;23.39;50.77;102037.19;10251670;29;20035;-71
2023/06/27 08:59:46;;;;;;;1.65;1.52;;;;;;;23.36;51.34;102039.63;10252814;28;20146;-71
2023/06/27 09:04:46;;;;;;;24.55;6.75;;;;;;;23.32;51.18;102044.78;10252248;29;20071;-70
2023/06/27 09:09:48;;;;;;;1.58;1.48;;;;;;;23.37;51.06;102044.88;10249924;29;20046;-71
2023/06/27 09:14:48;;;;;;;3.25;1.42;;;;;;;24.00;50.17;102041.81;10250725;29;20038;-71
2023/06/27 09:19:49;;;;;;;3.72;2.17;;;;;;;24.67;48.96;102046.09;10238757;29;20378;-70
2023/06/27 09:24:49;;;;;;;10.25;2.00;;;;;;;25.04;47.77;102040.53;10253477;29;20039;-71
2023/06/27 09:29:50;;;;;;;9.52;2.10;;;;;;;26.34;46.18;102052.75;10250040;29;20462;-70
2023/06/27 09:34:50;;;;;;;5.05;1.40;;;;;;;28.25;44.45;102033.38;10252388;28;20032;-70
2023/06/27 09:39:50;;;;;;;3.65;1.90;;;;;;;28.56;42.74;102024.78;10251446;29;20065;-69
2023/06/27 09:44:51;;;;;;;2.67;1.85;;;;;;;27.53;41.52;102030.94;10232912;29;20478;-71
2023/06/27 09:49:52;;;;;;;14.20;4.00;;;;;;;26.87;43.96;102033.91;10250480;29;20035;-70
2023/06/27 09:54:53;;;;;;;35.22;11.27;;;;;;;26.74;42.80;102031.66;10234287;29;20035;-70
2023/06/27 09:59:57;;;;;;;180.35;44.00;;;;;;;27.35;42.41;102039.94;10249153;29;20542;-71
2023/06/27 10:04:58;;;;;;;164.77;34.47;;;;;;;27.83;41.72;102036.72;10249657;28;20387;-70
2023/06/27 10:09:58;;;;;;;13.85;2.35;;;;;;;28.50;40.85;102030.41;10234064;29;20035;-69
2023/06/27 10:14:59;;;;;;;35.83;8.85;;;;;;;28.89;41.16;102034.25;10249864;29;20239;-70
2023/06/27 10:19:59;;;;;;;77.45;21.48;;;;;;;28.56;41.35;102024.78;10249723;28;20190;-70
2023/06/27 10:25:07;;;;;;;46.58;16.27;;;;;;;28.28;41.02;102024.44;10248461;29;20031;-70
2023/06/27 10:30:12;;;;;;;10.52;6.03;;;;;;;29.58;37.31;102029.28;10253403;28;20189;-69
2023/06/27 10:35:26;;;;;;;58.50;12.55;;;;;;;29.04;38.50;102036.09;10241179;29;20039;-70
2023/06/27 10:40:29;;;;;;;58.63;17.38;;;;;;;28.71;40.38;102038.59;10255411;29;20070;-71
2023/06/27 10:45:29;;;;;;;57.60;15.88;;;;;;;28.72;38.82;102043.88;10257536;28;20130;-69
2023/06/27 10:50:35;;;;;;;8.25;4.22;;;;;;;28.48;38.93;102042.97;10239617;29;20109;-70
2023/06/27 10:55:37;;;;;;;3.00;2.13;;;;;;;28.36;39.06;102048.03;10255382;29;20035;-70
2023/06/27 11:00:41;;;;;;;11.07;4.13;;;;;;;28.33;38.27;102038.31;10271716;28;20075;-70
2023/06/27 11:05:51;;;;;;;10.77;2.30;;;;;;;29.11;37.14;102039.34;10254160;29;20035;-68
2023/06/27 11:11:04;;;;;;;3.97;2.08;;;;;;;29.17;35.26;102061.31;10239002;29;20027;-71
2023/06/27 11:16:05;;;;;;;5.70;2.17;;;;;;;29.46;36.02;102037.28;10255788;28;20395;-70
2023/06/27 11:21:05;;;;;;;2.50;1.73;;;;;;;29.74;37.61;102039.19;10254180;29;20089;-70
2023/06/27 11:26:05;;;;;;;1.67;1.55;;;;;;;29.88;35.95;102034.50;10256395;29;20087;-71
2023/06/27 11:31:06;;;;;;;2.53;1.73;;;;;;;28.81;35.87;102037.66;10237850;29;20428;-70
2023/06/27 11:36:07;;;;;;;5.80;2.78;;;;;;;27.83;37.00;102033.94;10253765;29;20031;-70
2023/06/27 11:41:08;;;;;;;1.65;1.52;;;;;;;26.46;37.07;102028.31;10252471;28;20043;-71
2023/06/27 11:46:09;;;;;;;5.05;2.10;;;;;;;25.91;38.39;102038.22;10256288;28;20415;-70
2023/06/27 11:51:13;;;;;;;1.25;1.15;;;;;;;25.88;39.06;102041.56;10253360;29;20090;-71
2023/06/27 11:56:13;;;;;;;2.33;1.92;;;;;;;25.35;39.13;102024.94;10254888;28;20035;-71
2023/06/27 12:01:15;;;;;;;3.42;2.17;;;;;;;25.62;39.36;102033.13;10269241;28;20133;-70
2023/06/27 12:06:34;;;;;;;2.38;1.90;;;;;;;25.72;39.43;102029.53;10253472;29;20042;-71
2023/06/27 12:11:36;;;;;;;4.25;1.73;;;;;;;25.82;39.76;102049.03;10236583;29;20231;-71
2023/06/27 12:16:36;;;;;;;3.60;1.95;;;;;;;26.05;39.31;102046.88;10251913;29;20105;-69
2023/06/27 12:21:36;;;;;;;2.28;1.88;;;;;;;25.85;39.15;102026.28;10255567;29;20093;-70
2023/06/27 12:26:37;;;;;;;2.35;1.42;;;;;;;26.43;38.76;102026.94;10238767;29;20028;-71
2023/06/27 12:31:38;;;;;;;3.80;2.35;;;;;;;26.96;37.87;102026.63;10221624;29;20359;-70
2023/06/27 12:36:38;;;;;;;7.38;2.08;;;;;;;26.86;37.66;102021.09;10253117;28;20363;-70
2023/06/27 12:41:39;;;;;;;3.15;2.25;;;;;;;26.58;38.89;102020.59;10253033;28;20063;-71
2023/06/27 12:46:39;;;;;;;2.53;1.48;;;;;;;26.40;37.77;102018.31;10269520;28;20035;-70
2023/06/27 12:51:40;;;;;;;2.83;1.90;;;;;;;25.96;38.34;102021.59;10251894;28;20368;-70
2023/06/27 12:56:40;;;;;;;3.38;1.85;;;;;;;25.85;38.62;102020.75;10251767;29;20065;-70
2023/06/27 13:01:57;;;;;;;3.50;1.92;;;;;;;25.48;38.37;102015.28;10250975;29;20388;-70
2023/06/27 13:06:58;;;;;;;2.35;1.98;;;;;;;25.61;38.53;102014.78;10237855;29;20061;-70
2023/06/27 13:11:58;;;;;;;6.88;1.70;;;;;;;26.01;38.05;102020.78;10235965;29;20035;-70
2023/06/27 13:16:59;;;;;;;1.90;1.63;;;;;;;26.52;38.11;102018.91;10252057;29;20473;-71
2023/06/27 13:21:59;;;;;;;3.80;2.55;;;;;;;27.32;37.77;102005.16;10252550;29;20110;-70
2023/06/27 13:27:00;;;;;;;2.72;1.33;;;;;;;27.24;38.29;102011.31;10235808;29;20065;-71
2023/06/27 13:32:01;;;;;;;1.60;1.50;;;;;;;26.41;37.72;102011.66;10234522;29;20031;-70
2023/06/27 13:37:02;;;;;;;7.70;1.77;;;;;;;26.57;38.81;102007.78;10251710;28;20031;-71
2023/06/27 13:42:02;;;;;;;3.40;2.10;;;;;;;25.97;38.69;102017.69;10251369;28;20093;-71
2023/06/27 13:47:03;;;;;;;7.97;1.95;;;;;;;26.63;38.63;102009.44;10250270;29;20065;-71
2023/06/27 13:52:04;;;;;;;9.95;2.08;;;;;;;26.52;39.03;102015.31;10252176;28;20039;-70
2023/06/27 13:57:05;;;;;;;1.58;1.48;;;;;;;25.91;39.08;102005.78;10233894;29;20056;-71
2023/06/27 14:02:05;;;;;;;2.80;1.67;;;;;;;25.89;39.56;102001.59;10251282;28;20031;-70
2023/06/27 14:07:06;;;;;;;3.33;2.20;;;;;;;25.91;39.70;102003.00;10241698;29;20552;-71
2023/06/27 14:12:06;;;;;;;1.88;1.35;;;;;;;25.75;39.26;101991.00;10256889;29;20074;-72
2023/06/27 14:17:07;;;;;;;9.50;2.22;;;;;;;25.67;39.52;101996.22;10258242;29;20044;-70
2023/06/27 14:22:08;;;;;;;2.03;1.30;;;;;;;26.18;39.51;101983.31;10256842;29;20130;-71
2023/06/27 14:27:10;;;;;;;4.07;1.52;;;;;;;26.50;39.39;101979.47;10258209;29;20090;-71
2023/06/27 14:32:11;;;;;;;4.38;1.88;;;;;;;26.00;39.30;101969.97;10260149;28;20173;-70
2023/06/27 14:37:11;;;;;;;3.15;1.23;;;;;;;25.69;39.91;101966.28;10245383;29;20546;-71
2023/06/27 14:42:12;;;;;;;1.73;1.63;;;;;;;25.51;40.01;101962.06;10263149;29;20062;-70
2023/06/27 14:47:13;;;;;;;0.88;0.88;;;;;;;25.48;39.93;101954.28;10258615;29;20182;-70
2023/06/27 14:52:14;;;;;;;9.15;2.08;;;;;;;25.65;40.21;101962.38;10241329;29;20414;-70
2023/06/27 14:57:16;;;;;;;1.90;1.70;;;;;;;25.38;39.68;101951.47;10241675;29;20057;-71
2023/06/27 15:02:16;;;;;;;2.72;2.20;;;;;;;25.25;40.13;101955.59;10257875;29;20050;-71
2023/06/27 15:07:17;;;;;;;9.45;2.03;;;;;;;25.05;39.53;101951.59;10257897;28;20395;-70
2023/06/27 15:12:17;;;;;;;1.73;1.60;;;;;;;24.91;39.64;101955.94;10255574;29;20470;-72
2023/06/27 15:17:18;;;;;;;3.80;1.67;;;;;;;24.56;39.99;101945.44;10254838;28;20477;-71
2023/06/27 15:22:21;;;;;;;1.33;1.30;;;;;;;24.64;40.04;101949.69;10237749;29;20118;-70
2023/06/27 15:27:21;;;;;;;1.63;1.52;;;;;;;24.41;40.10;101937.00;10254792;29;20504;-70
2023/06/27 15:32:22;;;;;;;2.08;1.88;;;;;;;24.19;40.27;101934.34;10255391;29;20039;-70
2023/06/27 15:37:22;;;;;;;2.25;1.50;;;;;;;23.99;40.73;101921.16;10255012;29;20059;-69
2023/06/27 15:42:23;;;;;;;2.05;1.92;;;;;;;23.72;41.08;101915.66;10254566;29;20107;-70
2023/06/27 15:47:23;;;;;;;3.78;1.98;;;;;;;23.43;41.55;101925.00;10254076;29;20098;-70
2023/06/27 15:52:23;;;;;;;1.55;1.45;;;;;;;23.17;41.98;101931.31;10254720;29;20035;-71
2023/06/27 15:57:25;;;;;;;1.45;1.45;;;;;;;22.94;42.56;101913.88;10253276;29;20035;-70
2023/06/27 16:02:25;;;;;;;2.70;1.83;;;;;;;22.81;42.70;101910.59;10237586;29;20058;-71
2023/06/27 16:07:25;;;;;;;4.72;2.13;;;;;;;22.65;43.66;101910.38;10254674;29;20119;-71
2023/06/27 16:12:26;;;;;;;3.47;1.92;;;;;;;22.41;44.48;101914.47;10252670;29;20123;-70
2023/06/27 16:17:26;;;;;;;13.18;2.33;;;;;;;22.44;44.77;101923.06;10251173;29;20043;-70
2023/06/27 16:22:27;;;;;;;4.13;2.47;;;;;;;22.52;44.46;101917.09;10236555;29;20039;-71
2023/06/27 16:27:27;;;;;;;5.32;2.22;;;;;;;22.58;44.61;101904.22;10267869;28;20168;-70
2023/06/27 16:32:28;;;;;;;5.30;2.28;;;;;;;22.62;44.01;101899.88;10253196;29;20119;-71
2023/06/27 16:37:30;;;;;;;2.63;2.42;;;;;;;22.77;43.90;101896.47;10252029;29;20173;-71
2023/06/27 16:42:31;;;;;;;11.43;2.05;;;;;;;22.67;44.44;101901.88;10251783;29;20086;-70
2023/06/27 16:47:31;;;;;;;9.88;2.28;;;;;;;22.27;45.13;101895.50;10267722;28;20031;-70
2023/06/27 16:52:32;;;;;;;2.70;1.60;;;;;;;22.17;44.89;101897.22;10251405;29;20039;-72
2023/06/27 16:57:35;;;;;;;4.05;1.95;;;;;;;22.00;45.16;101898.03;10251055;29;20470;-69
2023/06/27 17:02:35;;;;;;;2.08;1.88;;;;;;;21.97;45.35;101898.53;10252110;29;20130;-71
2023/06/27 17:07:36;;;;;;;8.48;1.85;;;;;;;21.79;45.19;101890.47;10251668;28;20117;-70
2023/06/27 17:12:36;;;;;;;1.88;1.58;;;;;;;21.71;45.95;101890.91;10266228;28;20031;-71
2023/06/27 17:17:37;;;;;;;8.13;1.98;;;;;;;21.64;45.75;101871.75;10250874;29;20063;-71
2023/06/27 17:22:37;;;;;;;3.10;1.52;;;;;;;21.58;46.70;101879.09;10250571;29;20077;-70
2023/06/27 17:27:38;;;;;;;6.97;2.47;;;;;;;21.52;46.46;101880.09;10252224;28;20060;-70
2023/06/27 17:32:38;;;;;;;2.90;1.80;;;;;;;21.55;46.42;101879.59;10252861;29;20066;-71
2023/06/27 17:37:39;;;;;;;5.32;2.38;;;;;;;21.49;46.57;101883.31;10253423;28;20039;-70
2023/06/27 17:42:41;;;;;;;6.97;2.10;;;;;;;21.29;46.65;101894.75;10259846;29;20143;-69
2023/06/27 17:47:42;;;;;;;11.07;1.90;;;;;;;21.17;46.60;101893.13;10258467;29;20097;-70
2023/06/27 17:52:42;;;;;;;8.40;1.98;;;;;;;21.08;47.00;101895.44;10258609;29;20467;-70
2023/06/27 17:57:43;;;;;;;3.45;1.85;;;;;;;20.98;47.23;101900.72;10258825;29;20038;-71
2023/06/27 18:02:43;;;;;;;4.50;2.40;;;;;;;20.95;47.07;101921.31;10257775;29;20056;-71
2023/06/27 18:07:44;;;;;;;2.70;2.00;;;;;;;20.87;46.94;101921.69;10258622;28;20035;-72
2023/06/27 18:12:46;;;;;;;1.63;1.52;;;;;;;20.73;47.11;101925.78;10257931;28;20503;-71
2023/06/27 18:17:46;;;;;;;3.90;1.95;;;;;;;20.51;47.61;101931.00;10257223;29;20039;-71
2023/06/27 18:22:46;;;;;;;2.13;1.92;;;;;;;20.31;48.06;101923.94;10256990;29;20062;-71
2023/06/27 18:27:47;;;;;;;3.30;2.75;;;;;;;20.16;47.99;101924.38;10257943;29;20073;-70
2023/06/27 18:32:49;;;;;;;2.47;1.83;;;;;;;20.08;47.92;101923.91;10258298;29;20035;-72
2023/06/27 18:37:49;;;;;;;4.05;2.28;;;;;;;20.01;48.29;101924.00;10259279;28;20122;-68
2023/06/27 18:42:50;;;;;;;3.13;1.92;;;;;;;19.95;48.43;101916.72;10256288;29;20126;-70
2023/06/27 18:47:53;;;;;;;4.10;1.45;;;;;;;19.94;48.53;101912.25;10225118;29;20375;-69
2023/06/27 18:52:54;;;;;;;3.33;2.08;;;;;;;19.84;48.69;101918.34;10255684;28;20035;-67
2023/06/27 18:57:55;;;;;;;5.35;2.10;;;;;;;19.73;48.98;101924.66;10257955;28;20031;-67
2023/06/27 19:02:55;;;;;;;8.25;2.75;;;;;;;19.65;49.63;101914.81;10238844;29;20046;-69
2023/06/27 19:07:56;;;;;;;10.30;2.35;;;;;;;19.63;49.05;101927.09;10256966;28;20046;-67
2023/06/27 19:12:58;;;;;;;6.43;2.58;;;;;;;19.58;49.14;101933.25;10256242;28;20047;-68
2023/06/27 19:17:59;;;;;;;5.07;2.55;;;;;;;19.45;49.57;101927.97;10255073;29;20054;-66
2023/06/27 19:23:00;;;;;;;2.75;2.10;;;;;;;19.39;49.86;101926.97;10270963;28;20109;-68
2023/06/27 19:28:02;;;;;;;5.53;2.53;;;;;;;19.28;50.07;101919.53;10256416;28;20039;-68
2023/06/27 19:33:03;;;;;;;4.80;3.20;;;;;;;19.26;50.34;101922.47;10255404;29;20114;-68
2023/06/27 19:38:03;;;;;;;14.43;1.83;;;;;;;19.05;50.85;101910.09;10255614;28;20122;-67
2023/06/27 19:43:03;;;;;;;8.88;2.25;;;;;;;18.79;50.94;101913.97;10238503;29;20130;-69
2023/06/27 19:48:05;;;;;;;8.60;2.40;;;;;;;18.62;51.79;101921.06;10254476;29;20420;-66
2023/06/27 19:53:06;;;;;;;3.17;2.40;;;;;;;18.50;51.45;101923.69;10254076;29;20370;-67
2023/06/27 19:58:07;;;;;;;6.90;2.85;;;;;;;18.48;51.86;101922.28;10255663;28;20031;-69
2023/06/27 20:03:07;;;;;;;1.02;1.02;;;;;;;18.52;52.08;101918.84;10257085;28;20167;-68
2023/06/27 20:08:09;;;;;;;3.15;2.50;;;;;;;18.58;52.39;101937.16;10257300;29;20099;-68
2023/06/27 20:13:09;;;;;;;3.83;2.28;;;;;;;18.64;52.14;101932.66;10254512;28;20101;-69
2023/06/27 20:18:10;;;;;;;17.83;2.60;;;;;;;18.62;52.17;101932.03;10254340;28;20455;-68
2023/06/27 20:23:10;;;;;;;7.60;1.75;;;;;;;18.56;52.21;101935.69;10253749;29;20118;-70
2023/06/27 20:28:11;;;;;;;4.25;1.50;;;;;;;18.47;53.21;101945.25;10252958;29;20031;-70
2023/06/27 20:33:11;;;;;;;6.00;2.45;;;;;;;18.50;52.74;101939.31;10252326;29;20043;-68
2023/06/27 20:38:12;;;;;;;5.22;2.58;;;;;;;18.47;52.82;101937.88;10253108;29;20130;-71
2023/06/27 20:43:13;;;;;;;13.27;2.42;;;;;;;18.34;53.09;101941.56;10255697;29;20052;-68
2023/06/27 20:48:13;;;;;;;2.47;1.90;;;;;;;18.22;52.74;101937.03;10253578;29;20375;-69
2023/06/27 20:53:14;;;;;;;2.42;1.92;;;;;;;18.14;53.32;101943.63;10252226;28;20129;-67
2023/06/27 20:58:14;;;;;;;3.90;2.00;;;;;;;18.12;54.40;101938.38;10251613;29;20110;-68
2023/06/27 21:03:15;;;;;;;4.75;2.22;;;;;;;18.19;53.73;101938.34;10253096;29;20118;-72
2023/06/27 21:08:16;;;;;;;5.85;1.85;;;;;;;18.23;53.84;101928.59;10255340;29;20348;-70
2023/06/27 21:13:17;;;;;;;5.90;2.70;;;;;;;18.18;54.58;101922.94;10235378;28;20066;-70
2023/06/27 21:18:18;;;;;;;2.55;1.65;;;;;;;18.20;54.41;101928.22;10252578;28;20027;-71
2023/06/27 21:23:18;;;;;;;1.95;1.55;;;;;;;18.17;54.93;101931.41;10236136;29;20411;-69
2023/06/27 21:28:18;;;;;;;2.17;1.63;;;;;;;18.09;54.75;101924.25;10251506;28;20031;-70
2023/06/27 21:33:19;;;;;;;10.93;3.80;;;;;;;17.91;57.50;101919.56;10251256;29;20105;-70
2023/06/27 21:38:20;;;;;;;5.57;2.28;;;;;;;17.82;58.35;101918.16;10218635;29;20035;-70
2023/06/27 21:43:20;;;;;;;4.35;2.03;;;;;;;17.86;58.35;101916.63;10252409;29;20063;-70
2023/06/27 21:48:21;;;;;;;4.18;1.95;;;;;;;17.88;57.92;101909.88;10251460;29;20050;-70
2023/06/27 21:53:21;;;;;;;8.93;1.80;;;;;;;17.89;57.65;101921.69;10251922;29;20035;-71
2023/06/27 21:58:22;;;;;;;8.90;2.05;;;;;;;17.87;57.21;101907.38;10251247;29;20095;-71
2023/06/27 22:03:22;;;;;;;12.30;2.70;;;;;;;17.65;59.79;101904.13;10252486;29;20383;-70
2023/06/27 22:08:23;;;;;;;3.22;2.13;;;;;;;17.33;61.59;101897.75;10236637;29;20039;-71
2023/06/27 22:13:23;;;;;;;9.65;2.67;;;;;;;17.15;63.40;101903.94;10250574;29;20126;-70
2023/06/27 22:18:25;;;;;;;2.60;2.40;;;;;;;17.07;65.09;101890.47;10251035;29;20066;-71
2023/06/27 22:23:26;;;;;;;7.85;2.30;;;;;;;16.96;67.08;101894.75;10250160;28;20132;-70
2023/06/27 22:28:26;;;;;;;5.65;2.92;;;;;;;16.87;71.44;101879.63;10240836;29;20451;-69
2023/06/27 22:33:27;;;;;;;11.50;3.35;;;;;;;16.78;71.16;101867.22;10259128;28;20036;-70
2023/06/27 22:38:27;;;;;;;3.25;2.08;;;;;;;16.71;78.68;101861.75;10240850;29;20027;-70
2023/06/27 22:43:27;;;;;;;4.70;2.33;;;;;;;16.65;80.24;101874.38;10258023;29;20146;-70
2023/06/27 22:48:28;;;;;;;10.05;2.72;;;;;;;16.62;78.83;101857.56;10258125;29;20043;-70
2023/06/27 22:53:28;;;;;;;12.13;3.05;;;;;;;16.62;78.06;101855.66;10256188;29;20059;-70
2023/06/27 22:58:29;;;;;;;4.82;3.20;;;;;;;16.59;84.38;101856.13;10257005;29;20463;-70